createdAt,value
2023-04-18T00:00:36.896Z,11.90
2023-04-18T00:03:05.006Z,12.02
2023-04-18T00:05:32.146Z,11.88
2023-04-18T00:07:59.151Z,11.25
2023-04-18T00:10:26.397Z,11.20
2023-04-18T00:12:53.440Z,11.10
2023-04-18T00:15:20.486Z,12.57
2023-04-18T00:17:48.419Z,11.15
2023-04-18T00:20:15.478Z,11.52
2023-04-18T00:22:42.744Z,11.25
2023-04-18T00:25:10.575Z,11.38
2023-04-18T00:27:38.466Z,12.23
2023-04-18T00:30:06.856Z,12.23
2023-04-18T00:32:37.627Z,11.50
2023-04-18T00:35:05.006Z,12.00
2023-04-18T00:37:32.669Z,10.90
2023-04-18T00:39:59.589Z,12.02
2023-04-18T00:42:28.957Z,12.40
2023-04-18T00:44:56.049Z,11.73
2023-04-18T00:47:23.178Z,11.68
2023-04-18T00:49:50.239Z,11.35
2023-04-18T00:52:17.423Z,11.80
2023-04-18T00:54:44.376Z,11.15
2023-04-18T00:57:12.126Z,11.32
2023-04-18T00:59:39.257Z,11.70
2023-04-18T01:02:08.053Z,12.25
2023-04-18T01:04:35.177Z,11.15
2023-04-18T01:07:02.521Z,10.85
2023-04-18T01:09:29.739Z,12.77
2023-04-18T01:11:56.882Z,11.32
2023-04-18T01:14:24.133Z,12.98
2023-04-18T01:16:51.100Z,11.82
2023-04-18T01:19:19.330Z,12.43
2023-04-18T01:21:46.377Z,11.50
2023-04-18T01:24:15.532Z,12.30
2023-04-18T01:26:44.200Z,12.23
2023-04-18T01:29:11.582Z,12.30
2023-04-18T01:31:38.906Z,12.07
2023-04-18T01:34:07.509Z,12.82
2023-04-18T01:36:35.172Z,12.73
2023-04-18T01:39:02.856Z,12.50
2023-04-18T01:41:32.569Z,13.05
2023-04-18T01:44:00.059Z,11.23
2023-04-18T01:46:27.503Z,13.73
2023-04-18T01:48:54.607Z,11.95
2023-04-18T01:51:21.729Z,12.07
2023-04-18T01:53:48.778Z,13.10
2023-04-18T01:56:15.839Z,12.93
2023-04-18T01:58:42.794Z,11.65
2023-04-18T02:01:09.816Z,11.30
2023-04-18T02:03:37.208Z,11.10
2023-04-18T02:06:04.775Z,9.98
2023-04-18T02:08:33.160Z,11.75
2023-04-18T02:11:01.426Z,11.57
2023-04-18T02:13:28.906Z,11.73
2023-04-18T02:15:57.723Z,12.23
2023-04-18T02:18:25.603Z,12.07
2023-04-18T02:20:52.749Z,11.48
2023-04-18T02:23:21.994Z,11.48
2023-04-18T02:25:49.049Z,11.82
2023-04-18T02:28:17.773Z,10.73
2023-04-18T02:30:44.797Z,10.57
2023-04-18T02:33:11.819Z,11.93
2023-04-18T02:35:38.970Z,11.05
2023-04-18T02:38:06.580Z,12.32
2023-04-18T02:40:33.611Z,12.15
2023-04-18T02:43:01.609Z,10.80
2023-04-18T02:45:29.259Z,11.15
2023-04-18T02:47:58.717Z,12.32
2023-04-18T02:50:25.799Z,11.98
2023-04-18T02:52:54.985Z,11.75
2023-04-18T02:55:26.926Z,10.57
2023-04-18T02:57:57.567Z,11.43
2023-04-18T03:00:44.871Z,10.85
2023-04-18T03:03:25.223Z,11.48
2023-04-18T03:06:12.206Z,10.85
2023-04-18T03:08:39.477Z,10.60
2023-04-18T03:11:07.768Z,10.98
2023-04-18T03:13:35.307Z,11.48
2023-04-18T03:16:02.676Z,12.18
2023-04-18T03:18:30.515Z,13.05
2023-04-18T03:20:59.308Z,12.43
2023-04-18T03:23:27.991Z,12.05
2023-04-18T03:25:54.949Z,11.80
2023-04-18T03:28:22.822Z,12.98
2023-04-18T03:30:50.867Z,12.75
2023-04-18T03:33:18.285Z,12.65
2023-04-18T03:35:47.130Z,12.93
2023-04-18T03:38:14.275Z,11.77
2023-04-18T03:40:43.185Z,10.13
2023-04-18T03:43:19.276Z,11.63
2023-04-18T03:45:47.520Z,12.20
2023-04-18T03:48:16.735Z,12.40
2023-04-18T03:50:45.517Z,11.57
2023-04-18T03:53:12.619Z,12.18
2023-04-18T03:55:41.433Z,11.23
2023-04-18T03:58:09.476Z,12.32
2023-04-18T04:00:36.618Z,12.32
2023-04-18T04:03:09.766Z,13.05
2023-04-18T04:05:36.966Z,12.80
2023-04-18T04:08:04.967Z,12.25
2023-04-18T04:10:31.923Z,11.48
2023-04-18T04:12:58.960Z,13.57
2023-04-18T04:15:26.517Z,11.93
2023-04-18T04:18:00.732Z,12.75
2023-04-18T04:20:28.080Z,12.55
2023-04-18T04:23:02.849Z,13.05
2023-04-18T04:25:33.912Z,12.93
2023-04-18T04:28:06.819Z,12.80
2023-04-18T04:30:41.744Z,12.00
2023-04-18T04:33:09.189Z,13.73
2023-04-18T04:35:36.843Z,12.85
2023-04-18T04:38:04.849Z,13.73
2023-04-18T04:40:42.958Z,13.60
2023-04-18T04:43:15.733Z,11.70
2023-04-18T04:45:45.331Z,11.15
2023-04-18T04:48:12.482Z,11.48
2023-04-18T04:50:40.553Z,10.90
2023-04-18T04:53:08.261Z,14.25
2023-04-18T04:55:35.378Z,12.35
2023-04-18T04:58:04.348Z,13.18
2023-04-18T05:00:42.573Z,13.27
2023-04-18T05:03:10.340Z,14.68
2023-04-18T05:05:37.727Z,14.43
2023-04-18T05:08:05.036Z,14.35
2023-04-18T05:10:32.612Z,14.52
2023-04-18T05:12:59.750Z,14.10
2023-04-18T05:15:26.734Z,14.85
2023-04-18T05:17:53.838Z,14.55
2023-04-18T05:20:20.890Z,15.18
2023-04-18T05:22:47.867Z,15.05
2023-04-18T05:25:14.815Z,14.75
2023-04-18T05:27:43.238Z,15.45
2023-04-18T05:30:10.590Z,14.93
2023-04-18T05:32:39.125Z,14.48
2023-04-18T05:35:07.170Z,14.45
2023-04-18T05:37:34.266Z,14.80
2023-04-18T05:40:01.339Z,16.17
2023-04-18T05:42:28.610Z,15.00
2023-04-18T05:44:55.791Z,15.75
2023-04-18T05:47:24.232Z,15.25
2023-04-18T05:49:51.549Z,16.08
2023-04-18T05:52:18.525Z,14.43
2023-04-18T05:54:45.873Z,15.35
2023-04-18T05:57:12.816Z,14.68
2023-04-18T05:59:39.833Z,13.88
2023-04-18T06:02:13.247Z,15.52
2023-04-18T06:04:41.988Z,13.77
2023-04-18T06:07:09.391Z,14.35
2023-04-18T06:09:36.423Z,13.85
2023-04-18T06:12:04.000Z,14.93
2023-04-18T06:14:31.712Z,15.00
2023-04-18T06:16:58.911Z,16.60
2023-04-18T06:19:25.929Z,12.88
2023-04-18T06:21:52.939Z,14.48
2023-04-18T06:24:20.000Z,15.48
2023-04-18T06:26:47.444Z,15.35
2023-04-18T06:29:14.730Z,15.30
2023-04-18T06:31:42.255Z,14.70
2023-04-18T06:34:09.508Z,14.10
2023-04-18T06:36:36.455Z,15.07
2023-04-18T06:39:03.895Z,13.07
2023-04-18T06:41:31.452Z,14.07
2023-04-18T06:46:28.436Z,14.68
2023-04-18T06:48:55.543Z,15.45
2023-04-18T06:51:22.530Z,14.15
2023-04-18T06:53:52.772Z,13.82
2023-04-18T06:56:22.828Z,15.38
2023-04-18T06:58:49.881Z,14.38
2023-04-18T07:01:16.950Z,13.82
2023-04-18T07:03:44.193Z,14.20
2023-04-18T07:06:11.405Z,14.80
2023-04-18T07:08:38.562Z,15.52
2023-04-18T07:11:06.479Z,16.08
2023-04-18T07:13:33.551Z,15.43
2023-04-18T07:16:01.541Z,16.05
2023-04-18T07:18:37.518Z,14.32
2023-04-18T07:21:07.670Z,15.68
2023-04-18T07:23:35.593Z,13.65
2023-04-18T07:26:03.185Z,12.95
2023-04-18T07:28:31.036Z,13.32
2023-04-18T07:30:58.400Z,13.65
2023-04-18T07:33:25.884Z,14.18
2023-04-18T07:35:53.236Z,12.90
2023-04-18T07:38:20.671Z,13.48
2023-04-18T07:40:47.656Z,11.63
2023-04-18T07:43:15.157Z,12.18
2023-04-18T07:45:43.496Z,12.40
2023-04-18T07:48:11.493Z,11.13
2023-04-18T07:50:38.597Z,11.55
2023-04-18T07:53:06.298Z,13.60
2023-04-18T07:55:33.289Z,13.27
2023-04-18T07:58:00.278Z,12.68
2023-04-18T08:00:28.964Z,11.52
2023-04-18T08:02:56.604Z,11.07
2023-04-18T08:05:23.814Z,12.45
2023-04-18T08:07:51.027Z,11.88
2023-04-18T08:10:18.470Z,12.18
2023-04-18T08:12:45.737Z,12.52
2023-04-18T08:15:13.181Z,11.68
2023-04-18T08:17:42.916Z,12.02
2023-04-18T08:20:10.505Z,11.70
2023-04-18T08:22:46.768Z,9.90
2023-04-18T08:25:17.794Z,10.93
2023-04-18T08:27:44.908Z,11.05
2023-04-18T08:30:12.549Z,12.15
2023-04-18T08:32:40.132Z,12.75
2023-04-18T08:35:07.689Z,12.30
2023-04-18T08:37:37.587Z,12.05
2023-04-18T08:40:07.282Z,12.48
2023-04-18T08:42:34.362Z,12.38
2023-04-18T08:45:01.699Z,11.82
2023-04-18T08:47:29.996Z,13.45
2023-04-18T08:49:57.556Z,13.45
2023-04-18T08:52:24.667Z,13.05
2023-04-18T08:54:52.167Z,13.25
2023-04-18T08:57:27.152Z,12.95
2023-04-18T08:59:54.673Z,11.55
2023-04-18T09:02:23.508Z,12.68
2023-04-18T09:04:53.605Z,12.13
2023-04-18T09:07:30.727Z,12.10
2023-04-18T09:09:57.977Z,11.98
2023-04-18T09:12:26.670Z,12.50
2023-04-18T09:15:09.976Z,11.73
2023-04-18T09:17:51.099Z,11.15
2023-04-18T09:20:34.617Z,10.75
2023-04-18T09:23:03.891Z,10.60
2023-04-18T09:25:54.561Z,10.95
2023-04-18T09:28:32.056Z,10.05
2023-04-18T09:31:07.985Z,9.65
2023-04-18T09:33:37.116Z,10.27
2023-04-18T09:36:20.634Z,10.02
2023-04-18T09:38:48.617Z,10.70
2023-04-18T09:41:19.921Z,10.50
2023-04-18T09:43:48.570Z,9.35
2023-04-18T09:46:17.658Z,10.77
2023-04-18T09:48:45.606Z,9.20
2023-04-18T09:51:15.089Z,11.52
2023-04-18T09:53:44.737Z,11.75
2023-04-18T09:56:27.913Z,10.80
2023-04-18T09:59:08.574Z,11.35
2023-04-18T10:01:36.180Z,10.50
2023-04-18T10:04:04.527Z,10.52
2023-04-18T10:06:33.455Z,11.15
2023-04-18T10:09:01.306Z,11.00
2023-04-18T10:11:29.382Z,10.02
2023-04-18T10:13:57.097Z,11.35
2023-04-18T10:16:24.111Z,10.05
2023-04-18T10:18:51.726Z,10.35
2023-04-18T10:21:18.685Z,10.45
2023-04-18T10:23:48.954Z,9.55
2023-04-18T10:26:16.172Z,11.32
2023-04-18T10:28:58.766Z,10.35
2023-04-18T10:31:26.962Z,9.18
2023-04-18T10:36:28.541Z,8.52
2023-04-18T10:39:00.505Z,8.65
2023-04-18T10:41:28.236Z,8.52
2023-04-18T10:44:11.406Z,8.55
2023-04-18T10:46:50.829Z,7.82
2023-04-18T10:49:27.527Z,9.18
2023-04-18T10:52:01.842Z,8.32
2023-04-18T10:54:51.256Z,8.60
2023-04-18T10:57:18.206Z,8.15
2023-04-18T10:59:50.838Z,7.45
2023-04-18T11:02:30.869Z,7.72
2023-04-18T11:04:58.409Z,7.35
2023-04-18T11:07:39.512Z,7.28
2023-04-18T11:10:07.968Z,7.32
2023-04-18T11:12:38.808Z,7.43
2023-04-18T11:15:32.356Z,7.25
2023-04-18T11:18:03.499Z,7.28
2023-04-18T11:20:39.185Z,7.60
2023-04-18T11:23:20.180Z,7.85
2023-04-18T11:25:49.509Z,7.45
2023-04-18T11:28:22.026Z,7.88
2023-04-18T11:30:49.763Z,6.97
2023-04-18T11:33:17.329Z,6.57
2023-04-18T11:35:45.361Z,6.32
2023-04-18T11:38:13.635Z,6.95
2023-04-18T11:40:47.690Z,6.72
2023-04-18T11:43:22.387Z,6.32
2023-04-18T11:45:56.490Z,8.02
2023-04-18T11:48:24.095Z,9.32
2023-04-18T11:50:51.179Z,7.15
2023-04-18T11:53:34.648Z,8.30
2023-04-18T11:58:33.046Z,8.73
2023-04-18T12:01:02.112Z,7.50
2023-04-18T12:03:29.793Z,7.25
2023-04-18T12:06:01.392Z,7.22
2023-04-18T12:08:28.508Z,8.13
2023-04-18T12:10:55.847Z,7.13
2023-04-18T12:13:26.952Z,8.38
2023-04-18T12:15:54.642Z,7.25
2023-04-18T12:18:21.738Z,7.55
2023-04-18T12:20:54.338Z,8.05
2023-04-18T12:23:40.547Z,7.45
2023-04-18T12:26:11.053Z,7.70
2023-04-18T12:28:38.087Z,7.78
2023-04-18T12:31:08.254Z,8.43
2023-04-18T12:33:38.136Z,7.35
2023-04-18T12:36:06.119Z,8.35
2023-04-18T12:38:33.160Z,8.43
2023-04-18T12:41:00.169Z,8.18
2023-04-18T12:43:27.207Z,8.65
2023-04-18T12:45:54.140Z,9.05
2023-04-18T12:48:21.392Z,9.15
2023-04-18T12:50:48.370Z,8.30
2023-04-18T12:53:15.378Z,7.80
2023-04-18T12:55:42.407Z,8.48
2023-04-18T12:58:09.406Z,9.10
2023-04-18T13:00:36.424Z,9.85
2023-04-18T13:03:03.594Z,7.60
2023-04-18T13:05:33.431Z,7.50
2023-04-18T13:10:31.019Z,9.05
2023-04-18T13:12:57.982Z,9.63
2023-04-18T13:15:25.771Z,7.55
2023-04-18T13:17:52.908Z,8.82
2023-04-18T13:20:19.904Z,9.18
2023-04-18T13:22:46.946Z,9.35
2023-04-18T13:25:14.007Z,9.45
2023-04-18T13:27:41.886Z,8.45
2023-04-18T13:30:10.833Z,8.75
2023-04-18T13:32:39.247Z,10.63
2023-04-18T13:35:09.122Z,8.77
2023-04-18T13:37:36.931Z,10.00
2023-04-18T13:40:06.601Z,9.23
2023-04-18T13:42:34.116Z,8.48
2023-04-18T13:45:01.168Z,8.93
2023-04-18T13:47:28.418Z,9.60
2023-04-18T13:49:56.205Z,9.35
2023-04-18T13:52:23.282Z,12.25
2023-04-18T13:54:50.292Z,9.82
2023-04-18T13:57:17.224Z,9.65
2023-04-18T13:59:44.386Z,8.55
2023-04-18T14:02:11.571Z,8.60
2023-04-18T14:04:39.023Z,8.52
2023-04-18T14:07:09.267Z,8.75
2023-04-18T14:09:36.718Z,8.60
2023-04-18T14:12:03.862Z,8.38
2023-04-18T14:14:31.008Z,7.85
2023-04-18T14:16:57.970Z,8.70
2023-04-18T14:19:25.165Z,7.88
2023-04-18T14:21:52.296Z,8.50
2023-04-18T14:24:19.291Z,8.63
2023-04-18T14:26:46.388Z,8.10
2023-04-18T14:29:14.438Z,8.27
2023-04-18T14:31:41.846Z,8.75
2023-04-18T14:34:09.847Z,6.75
2023-04-18T14:36:37.108Z,7.43
2023-04-18T14:39:04.728Z,9.45
2023-04-18T14:41:31.795Z,7.25
2023-04-18T14:43:59.270Z,6.85
2023-04-18T14:46:28.411Z,7.63
2023-04-18T14:48:55.560Z,7.95
2023-04-18T14:51:23.258Z,7.75
2023-04-18T14:53:50.236Z,8.32
2023-04-18T14:56:21.033Z,7.47
2023-04-18T15:01:15.466Z,7.22
2023-04-18T15:03:42.504Z,7.28
2023-04-18T15:06:09.622Z,7.15
2023-04-18T15:08:36.705Z,6.72
2023-04-18T15:11:07.592Z,6.78
2023-04-18T15:16:01.689Z,7.07
2023-04-18T15:18:28.901Z,7.40
2023-04-18T15:20:57.098Z,7.72
2023-04-18T15:23:24.191Z,7.47
2023-04-18T15:25:51.117Z,7.38
2023-04-18T15:28:18.943Z,7.63
2023-04-18T15:30:46.398Z,7.28
2023-04-18T15:33:13.732Z,8.05
2023-04-18T15:35:40.962Z,7.63
2023-04-18T15:38:07.958Z,7.75
2023-04-18T15:40:36.352Z,7.72
2023-04-18T15:43:04.122Z,7.68
2023-04-18T15:45:31.338Z,7.85
2023-04-18T15:47:58.793Z,7.80
2023-04-18T15:50:26.085Z,6.70
2023-04-18T15:52:53.101Z,7.78
2023-04-18T15:55:20.105Z,8.18
2023-04-18T15:57:47.107Z,9.00
2023-04-18T16:00:17.449Z,8.30
2023-04-18T16:02:44.980Z,8.75
2023-04-18T16:05:15.477Z,8.65
2023-04-18T16:07:42.947Z,8.68
2023-04-18T16:10:10.899Z,8.88
2023-04-18T16:12:39.086Z,8.27
2023-04-18T16:15:07.256Z,8.95
2023-04-18T16:17:34.574Z,8.50
2023-04-18T16:20:01.866Z,8.35
2023-04-18T16:22:28.898Z,9.18
2023-04-18T16:24:55.873Z,8.40
2023-04-18T16:27:22.886Z,9.10
2023-04-18T16:29:49.862Z,9.32
2023-04-18T16:32:16.849Z,10.75
2023-04-18T16:34:43.776Z,10.38
2023-04-18T16:37:11.289Z,11.88
2023-04-18T16:39:38.270Z,11.98
2023-04-18T16:42:05.841Z,12.18
2023-04-18T16:44:33.343Z,12.57
2023-04-18T16:47:00.474Z,11.18
2023-04-18T16:49:28.608Z,9.45
2023-04-18T16:51:55.846Z,9.57
2023-04-18T16:54:22.888Z,9.43
2023-04-18T16:56:49.988Z,8.90
2023-04-18T16:59:17.053Z,9.13
2023-04-18T17:01:44.232Z,8.90
2023-04-18T17:04:11.343Z,8.68
2023-04-18T17:06:38.415Z,8.30
2023-04-18T17:09:06.409Z,9.20
2023-04-18T17:11:39.796Z,7.93
2023-04-18T17:14:08.164Z,7.30
2023-04-18T17:16:37.760Z,8.82
2023-04-18T17:19:05.362Z,7.35
2023-04-18T17:21:33.063Z,7.57
2023-04-18T17:24:03.552Z,7.20
2023-04-18T17:26:31.008Z,6.97
2023-04-18T17:28:58.045Z,6.57
2023-04-18T17:31:25.147Z,7.75
2023-04-18T17:33:53.388Z,8.05
2023-04-18T17:36:20.681Z,8.32
2023-04-18T17:38:50.468Z,7.68
2023-04-18T17:41:18.525Z,7.07
2023-04-18T17:43:46.025Z,7.15
2023-04-18T17:46:13.668Z,7.18
2023-04-18T17:48:41.308Z,7.90
2023-04-18T17:51:08.407Z,7.90
2023-04-18T17:53:35.436Z,7.38
2023-04-18T17:56:03.827Z,7.60
2023-04-18T17:58:31.278Z,8.25
2023-04-18T18:00:58.485Z,8.60
2023-04-18T18:03:25.729Z,8.52
2023-04-18T18:05:54.925Z,8.10
2023-04-18T18:08:22.786Z,8.57
2023-04-18T18:10:50.120Z,9.02
2023-04-18T18:13:17.283Z,9.18
2023-04-18T18:15:44.290Z,9.43
2023-04-18T18:18:11.555Z,9.75
2023-04-18T18:20:40.944Z,7.50
2023-04-18T18:23:08.959Z,9.38
2023-04-18T18:25:37.726Z,10.10
2023-04-18T18:28:04.911Z,7.97
2023-04-18T18:30:32.142Z,7.68
2023-04-18T18:32:59.483Z,10.10
2023-04-18T18:35:26.711Z,9.57
2023-04-18T18:37:54.022Z,7.85
2023-04-18T18:40:21.367Z,8.65
2023-04-18T18:42:53.842Z,9.02
2023-04-18T18:45:21.500Z,8.88
2023-04-18T18:47:49.324Z,8.80
2023-04-18T18:50:16.630Z,9.45
2023-04-18T18:52:44.827Z,8.90
2023-04-18T18:55:12.156Z,11.43
2023-04-18T18:57:39.656Z,14.57
2023-04-18T19:00:11.184Z,9.15
2023-04-18T19:02:39.346Z,8.68
2023-04-18T19:05:09.045Z,8.98
2023-04-18T19:07:36.360Z,9.60
2023-04-18T19:10:04.726Z,8.23
2023-04-18T19:12:32.489Z,9.43
2023-04-18T19:15:00.690Z,8.27
2023-04-18T19:17:28.794Z,8.15
2023-04-18T19:19:58.240Z,8.50
2023-04-18T19:22:26.076Z,7.75
2023-04-18T19:24:53.510Z,8.27
2023-04-18T19:27:20.786Z,8.27
2023-04-18T19:29:49.007Z,7.47
2023-04-18T19:32:16.394Z,7.93
2023-04-18T19:34:44.057Z,8.25
2023-04-18T19:37:11.768Z,8.07
2023-04-18T19:39:38.976Z,7.90
2023-04-18T19:42:06.425Z,7.72
2023-04-18T19:44:33.735Z,7.47
2023-04-18T19:47:01.389Z,7.45
2023-04-18T19:49:28.650Z,7.43
2023-04-18T19:51:55.950Z,6.82
2023-04-18T19:54:23.141Z,6.50
2023-04-18T19:56:50.448Z,6.97
2023-04-18T19:59:17.934Z,6.78
2023-04-18T20:01:45.187Z,7.35
2023-04-18T20:04:12.489Z,7.65
2023-04-18T20:06:39.650Z,7.28
2023-04-18T20:09:08.635Z,7.47
2023-04-18T20:11:35.716Z,7.32
2023-04-18T20:14:03.294Z,6.65
2023-04-18T20:16:30.548Z,7.32
2023-04-18T20:18:57.610Z,6.85
2023-04-18T20:21:24.720Z,7.05
2023-04-18T20:23:51.865Z,7.72
2023-04-18T20:26:19.441Z,7.38
2023-04-18T20:28:46.559Z,7.32
2023-04-18T20:31:13.727Z,6.53
2023-04-18T20:33:41.345Z,6.53
2023-04-18T20:36:08.513Z,7.35
2023-04-18T20:38:37.038Z,6.38
2023-04-18T20:41:04.294Z,7.20
2023-04-18T20:43:37.303Z,7.28
2023-04-18T20:46:04.512Z,7.00
2023-04-18T20:48:31.561Z,7.32
2023-04-18T20:50:58.524Z,7.38
2023-04-18T20:53:27.116Z,7.43
2023-04-18T20:55:54.309Z,7.03
2023-04-18T20:58:21.328Z,7.65
2023-04-18T21:00:49.016Z,7.55
2023-04-18T21:03:16.432Z,8.27
2023-04-18T21:05:43.906Z,9.15
2023-04-18T21:08:13.907Z,9.77
2023-04-18T21:10:40.964Z,8.50
2023-04-18T21:13:09.293Z,9.07
2023-04-18T21:15:36.462Z,9.07
2023-04-18T21:18:03.636Z,8.80
2023-04-18T21:20:30.594Z,9.32
2023-04-18T21:22:57.576Z,10.23
2023-04-18T21:25:24.548Z,9.20
2023-04-18T21:27:51.589Z,9.98
2023-04-18T21:30:18.567Z,10.10
2023-04-18T21:32:46.091Z,10.32
2023-04-18T21:35:13.287Z,10.95
2023-04-18T21:37:40.370Z,10.48
2023-04-18T21:40:08.069Z,9.98
2023-04-18T21:42:35.677Z,9.32
2023-04-18T21:45:02.817Z,10.48
2023-04-18T21:47:30.202Z,10.20
2023-04-18T21:49:57.254Z,10.30
2023-04-18T21:52:24.213Z,9.90
2023-04-18T21:54:51.389Z,10.05
2023-04-18T21:57:18.437Z,9.30
2023-04-18T21:59:45.420Z,10.75
2023-04-18T22:02:12.634Z,11.20
2023-04-18T22:04:42.592Z,11.48
2023-04-18T22:07:10.043Z,10.73
2023-04-18T22:09:37.173Z,11.60
2023-04-18T22:12:04.614Z,10.43
2023-04-18T22:14:32.312Z,10.70
2023-04-18T22:17:03.293Z,11.50
2023-04-18T22:21:58.404Z,10.88
2023-04-18T22:24:26.053Z,10.57
2023-04-18T22:26:53.232Z,9.85
2023-04-18T22:29:20.208Z,10.63
2023-04-18T22:31:47.366Z,10.95
2023-04-18T22:34:14.726Z,9.77
2023-04-18T22:36:42.896Z,9.50
2023-04-18T22:39:09.970Z,10.20
2023-04-18T22:41:37.166Z,10.15
2023-04-18T22:44:04.830Z,9.45
2023-04-18T22:46:33.079Z,9.88
2023-04-18T22:49:00.654Z,9.98
2023-04-18T22:51:28.950Z,10.60
2023-04-18T22:53:56.392Z,9.88
2023-04-18T22:56:23.493Z,9.25
2023-04-18T22:58:50.591Z,10.70
2023-04-18T23:01:17.683Z,9.82
2023-04-18T23:03:44.983Z,9.27
2023-04-18T23:06:12.128Z,10.07
2023-04-18T23:08:39.088Z,10.00
2023-04-18T23:11:06.122Z,10.35
2023-04-18T23:13:33.136Z,11.73
2023-04-18T23:16:00.318Z,11.63
2023-04-18T23:18:29.961Z,10.82
2023-04-18T23:20:56.957Z,11.35
2023-04-18T23:23:24.111Z,11.15
2023-04-18T23:25:51.547Z,10.25
2023-04-18T23:28:18.622Z,10.25
2023-04-18T23:30:45.734Z,10.93
2023-04-18T23:33:12.688Z,10.35
2023-04-18T23:35:39.689Z,11.07
2023-04-18T23:38:06.684Z,11.60
2023-04-18T23:40:33.925Z,11.35
2023-04-18T23:43:01.626Z,12.13
2023-04-18T23:45:31.416Z,11.32
2023-04-18T23:47:58.811Z,11.23
2023-04-18T23:50:25.871Z,12.05
2023-04-18T23:52:52.846Z,11.70
2023-04-18T23:55:19.874Z,12.05
2023-04-18T23:57:46.907Z,11.93
